Time;durP1;ratioP1;P1;durP2;ratioP2;P2;SDS_P1;SDS_P2;PMS_P1;PMS_P2;Temp;Humidity;BMP_temperature;BMP_pressure;BME280_temperature;BME280_humidity;BME280_pressure;Samples;Min_cycle;Max_cycle;Signal;HPM_P1;HPM_P2
2023/10/13 00:00:34;;;;;;;;;;;17.60;99.90;;;;;;8395330;28;19924;-71
2023/10/13 00:04:36;;;;;;;;;;;17.60;99.90;;;;;;8389890;28;19925;-71
2023/10/13 00:08:39;;;;;;;;;;;17.60;99.90;;;;;;8407248;28;19924;-71
2023/10/13 00:12:49;;;;;;;;;;;17.60;99.90;;;;;;8406868;28;20367;-71
2023/10/13 00:17:15;;;;;;;;;;;17.60;99.90;;;;;;8384622;28;19936;-71
2023/10/13 00:21:33;;;;;;;;;;;17.60;99.90;;;;;;8410311;28;19973;-71
2023/10/13 00:25:43;;;;;;;;;;;17.60;99.90;;;;;;8406776;28;19928;-71
2023/10/13 00:29:46;;;;;;;;;;;17.60;99.90;;;;;;8409863;28;19928;-70
2023/10/13 00:33:49;;;;;;;;;;;17.60;99.90;;;;;;8401950;28;19924;-71
2023/10/13 00:37:53;;;;;;;;;;;17.60;99.90;;;;;;8401686;28;19924;-70
2023/10/13 00:42:06;;;;;;;;;;;17.60;99.90;;;;;;8403191;28;20334;-71
2023/10/13 00:46:08;;;;;;;;;;;17.60;99.90;;;;;;8411563;28;20379;-71
2023/10/13 00:50:11;;;;;;;;;;;17.60;99.90;;;;;;8387348;28;19928;-71
2023/10/13 00:54:16;;;;;;;;;;;17.60;99.90;;;;;;8391408;28;19925;-71
2023/10/13 00:58:22;;;;;;;;;;;17.60;99.90;;;;;;8401412;28;20592;-71
2023/10/13 01:06:38;;;;;;;;;;;17.60;99.90;;;;;;8413123;28;20359;-71
2023/10/13 01:10:41;;;;;;;;;;;17.60;99.90;;;;;;8400843;28;19925;-71
2023/10/13 01:14:44;;;;;;;;;;;17.50;99.90;;;;;;8405396;28;19928;-71
2023/10/13 01:18:48;;;;;;;;;;;17.50;99.90;;;;;;8407024;28;20004;-71
2023/10/13 01:22:56;;;;;;;;;;;17.50;99.90;;;;;;8406356;28;19924;-70
2023/10/13 01:27:07;;;;;;;;;;;17.60;99.90;;;;;;8405176;28;19942;-71
2023/10/13 01:31:08;;;;;;;;;;;17.50;99.90;;;;;;8409041;28;20315;-70
2023/10/13 01:35:10;;;;;;;;;;;17.50;99.90;;;;;;8410365;28;19955;-70
2023/10/13 01:39:16;;;;;;;;;;;17.50;99.90;;;;;;8403587;28;19928;-71
2023/10/13 01:43:18;;;;;;;;;;;17.50;99.90;;;;;;8408307;28;19928;-71
2023/10/13 01:47:22;;;;;;;;;;;17.50;99.90;;;;;;8387025;28;20283;-71
2023/10/13 01:51:28;;;;;;;;;;;17.50;99.90;;;;;;8404437;28;19954;-70
2023/10/13 01:55:30;;;;;;;;;;;17.50;99.90;;;;;;8405923;28;19940;-71
2023/10/13 01:59:32;;;;;;;;;;;17.50;99.90;;;;;;8405578;28;19931;-71
2023/10/13 02:03:36;;;;;;;;;;;17.50;99.90;;;;;;8395792;28;19944;-70
2023/10/13 02:07:38;;;;;;;;;;;17.50;99.90;;;;;;8401514;28;20384;-70
2023/10/13 02:11:41;;;;;;;;;;;17.50;99.90;;;;;;8387196;28;19924;-70
2023/10/13 02:15:47;;;;;;;;;;;17.40;99.90;;;;;;8406722;28;19985;-71
2023/10/13 02:19:49;;;;;;;;;;;17.40;99.90;;;;;;8405827;28;20401;-71
2023/10/13 02:39:07;;;;;;;;;;;17.40;99.90;;;;;;8415679;28;19919;-71
2023/10/13 02:43:08;;;;;;;;;;;17.40;99.90;;;;;;8409829;28;19998;-71
2023/10/13 02:47:14;;;;;;;;;;;17.40;99.90;;;;;;8398261;28;19977;-71
2023/10/13 02:51:16;;;;;;;;;;;17.40;99.90;;;;;;8407924;28;20378;-71
2023/10/13 02:55:25;;;;;;;;;;;17.40;99.90;;;;;;8401439;28;19971;-71
2023/10/13 03:03:50;;;;;;;;;;;17.40;99.90;;;;;;8408169;28;19978;-71
2023/10/13 03:07:52;;;;;;;;;;;17.40;99.90;;;;;;8406376;28;20156;-71
2023/10/13 03:11:53;;;;;;;;;;;17.40;99.90;;;;;;8404156;28;21282;-70
2023/10/13 03:15:55;;;;;;;;;;;17.40;99.90;;;;;;8415959;28;19936;-70
2023/10/13 03:19:56;;;;;;;;;;;17.40;99.90;;;;;;8402363;28;20226;-71
2023/10/13 03:24:06;;;;;;;;;;;17.50;99.90;;;;;;8404266;28;19939;-71
2023/10/13 03:28:13;;;;;;;;;;;17.40;99.90;;;;;;8407015;28;19932;-71
2023/10/13 03:32:15;;;;;;;;;;;17.40;99.90;;;;;;8390545;28;19925;-71
2023/10/13 03:36:56;;;;;;;;;;;17.40;99.90;;;;;;8393744;28;19925;-70
2023/10/13 03:40:40;;;;;;;;;;;17.40;99.90;;;;;;8414177;28;19932;-71
2023/10/13 03:44:45;;;;;;;;;;;17.40;99.90;;;;;;8406769;28;19924;-71
2023/10/13 03:49:01;;;;;;;;;;;17.40;99.90;;;;;;8423958;28;19988;-70
2023/10/13 03:53:05;;;;;;;;;;;17.40;99.90;;;;;;8395386;28;19925;-71
2023/10/13 03:57:16;;;;;;;;;;;17.40;99.90;;;;;;8422414;28;19932;-71
2023/10/13 04:01:18;;;;;;;;;;;17.40;99.90;;;;;;8416317;28;20380;-71
2023/10/13 04:05:35;;;;;;;;;;;17.40;99.90;;;;;;8410228;28;19924;-71
2023/10/13 04:18:29;;;;;;;;;;;17.40;99.90;;;;;;8413011;28;20314;-71
2023/10/13 04:31:24;;;;;;;;;;;17.40;99.90;;;;;;8420894;28;19924;-71
2023/10/13 04:35:34;;;;;;;;;;;17.30;99.90;;;;;;8419364;28;19928;-71
2023/10/13 04:39:38;;;;;;;;;;;17.30;99.90;;;;;;8398821;28;19989;-71
2023/10/13 04:44:04;;;;;;;;;;;17.30;99.90;;;;;;8420457;28;19924;-71
2023/10/13 04:52:50;;;;;;;;;;;17.30;99.90;;;;;;8404862;28;19947;-71
2023/10/13 05:44:37;;;;;;;;;;;17.50;99.90;;;;;;8401443;28;19928;-71
2023/10/13 05:48:54;;;;;;;;;;;17.50;99.90;;;;;;8394030;28;19947;-69
2023/10/13 06:31:45;;;;;;;;;;;17.60;99.90;;;;;;8424415;28;19924;-71
2023/10/13 06:35:50;;;;;;;;;;;17.60;99.90;;;;;;8408113;28;19934;-70
2023/10/13 06:39:56;;;;;;;;;;;17.70;99.90;;;;;;8407936;28;20018;-71
2023/10/13 06:44:00;;;;;;;;;;;17.70;99.90;;;;;;8416167;28;20329;-70
2023/10/13 06:48:02;;;;;;;;;;;17.80;99.90;;;;;;8394770;28;19928;-70
2023/10/13 06:52:06;;;;;;;;;;;17.80;99.90;;;;;;8409092;28;20314;-71
2023/10/13 06:56:09;;;;;;;;;;;17.90;99.90;;;;;;8395702;28;19928;-70
2023/10/13 07:00:19;;;;;;;;;;;17.90;99.90;;;;;;8420283;28;19936;-71
2023/10/13 07:04:21;;;;;;;;;;;18.00;99.90;;;;;;8415613;28;19947;-71
2023/10/13 07:08:25;;;;;;;;;;;18.00;99.90;;;;;;8410787;28;19935;-70
2023/10/13 07:12:27;;;;;;;;;;;18.10;99.90;;;;;;8418678;28;19957;-71
2023/10/13 07:16:35;;;;;;;;;;;18.10;99.90;;;;;;8413025;28;20376;-71
2023/10/13 07:20:43;;;;;;;;;;;18.10;99.90;;;;;;8416896;28;19978;-70
2023/10/13 07:24:48;;;;;;;;;;;18.10;99.90;;;;;;8401293;28;19932;-71
2023/10/13 07:28:51;;;;;;;;;;;18.20;99.90;;;;;;8415632;28;20295;-71
2023/10/13 07:32:57;;;;;;;;;;;18.20;99.90;;;;;;8415642;28;20512;-71
2023/10/13 07:36:59;;;;;;;;;;;18.20;99.90;;;;;;8404276;28;20018;-71
2023/10/13 07:41:07;;;;;;;;;;;18.20;99.90;;;;;;8401545;28;19966;-71
2023/10/13 07:45:13;;;;;;;;;;;18.30;99.90;;;;;;8401387;28;19928;-70
2023/10/13 07:49:15;;;;;;;;;;;18.30;99.90;;;;;;8423198;28;20367;-70
2023/10/13 07:53:22;;;;;;;;;;;18.30;99.90;;;;;;8412871;28;20351;-71
2023/10/13 07:57:29;;;;;;;;;;;18.30;99.90;;;;;;8409821;28;20341;-70
2023/10/13 08:01:32;;;;;;;;;;;18.30;99.90;;;;;;8416252;28;19957;-70
2023/10/13 08:05:55;;;;;;;;;;;18.30;99.90;;;;;;8395814;28;19928;-70
2023/10/13 08:09:59;;;;;;;;;;;18.40;99.90;;;;;;8410459;28;19963;-69
2023/10/13 08:14:11;;;;;;;;;;;18.40;99.90;;;;;;8378876;28;19925;-70
2023/10/13 08:18:33;;;;;;;;;;;18.50;99.90;;;;;;8416324;28;19982;-71
2023/10/13 08:22:38;;;;;;;;;;;18.60;99.90;;;;;;8412770;28;19924;-69
2023/10/13 08:27:33;;;;;;;;;;;18.70;99.90;;;;;;8402782;28;19940;-70
2023/10/13 08:31:14;;;;;;;;;;;18.80;99.90;;;;;;8396676;28;20392;-70
2023/10/13 08:35:23;;;;;;;;;;;18.80;99.90;;;;;;8400976;28;20303;-70
2023/10/13 08:43:50;;;;;;;;;;;19.00;99.90;;;;;;8404621;28;19932;-70
2023/10/13 08:52:46;;;;;;;;;;;19.00;99.90;;;;;;8401135;28;19977;-71
2023/10/13 08:56:46;;;;;;;;;;;19.10;99.90;;;;;;8400668;28;20342;-70
2023/10/13 09:01:11;;;;;;;;;;;19.20;99.90;;;;;;8380902;28;20372;-70
2023/10/13 09:13:55;;;;;;;;;;;19.20;99.90;;;;;;8395813;28;19924;-71
2023/10/13 09:18:15;;;;;;;;;;;19.30;99.90;;;;;;8392175;28;19928;-70
2023/10/13 09:22:36;;;;;;;;;;;19.30;99.90;;;;;;8388707;28;19938;-70
2023/10/13 09:26:37;;;;;;;;;;;19.30;99.90;;;;;;8390417;28;21775;-70
2023/10/13 09:30:49;;;;;;;;;;;19.30;99.90;;;;;;8389048;28;19947;-70
2023/10/13 09:34:51;;;;;;;;;;;19.30;99.90;;;;;;8367611;28;20065;-70
2023/10/13 09:43:17;;;;;;;;;;;19.40;99.90;;;;;;8379719;28;20261;-70
2023/10/13 09:47:24;;;;;;;;;;;19.50;99.90;;;;;;8386177;28;20268;-69
2023/10/13 09:51:26;;;;;;;;;;;19.50;99.90;;;;;;8393336;28;19929;-70
2023/10/13 09:55:30;;;;;;;;;;;19.50;99.90;;;;;;8388118;28;19987;-70
2023/10/13 09:59:47;;;;;;;;;;;19.60;99.90;;;;;;8386834;28;19925;-70
2023/10/13 10:04:09;;;;;;;;;;;19.60;99.90;;;;;;8384435;28;19924;-70
2023/10/13 10:08:10;;;;;;;;;;;19.60;99.90;;;;;;8389907;28;20224;-69
2023/10/13 10:12:28;;;;;;;;;;;19.60;99.90;;;;;;8385697;28;19979;-70
2023/10/13 10:16:48;;;;;;;;;;;19.60;99.90;;;;;;8386488;28;19955;-70
2023/10/13 10:20:55;;;;;;;;;;;19.70;99.90;;;;;;8377612;28;19935;-70
2023/10/13 10:24:58;;;;;;;;;;;19.70;99.90;;;;;;8389594;28;19930;-69
2023/10/13 10:29:07;;;;;;;;;;;19.70;99.90;;;;;;8392500;28;19924;-70
2023/10/13 10:33:15;;;;;;;;;;;19.80;99.90;;;;;;8384147;28;19976;-71
2023/10/13 10:37:18;;;;;;;;;;;19.90;99.90;;;;;;8387735;28;19925;-70
2023/10/13 10:41:25;;;;;;;;;;;19.90;99.90;;;;;;8385710;28;19978;-70
2023/10/13 10:45:32;;;;;;;;;;;20.00;99.90;;;;;;8384173;28;20015;-70
2023/10/13 10:49:37;;;;;;;;;;;20.10;99.90;;;;;;8388790;28;19924;-71
2023/10/13 10:53:46;;;;;;;;;;;20.30;99.90;;;;;;8389705;28;19924;-70
2023/10/13 10:57:58;;;;;;;;;;;20.30;99.90;;;;;;8397130;28;20556;-70
2023/10/13 11:01:59;;;;;;;;;;;20.40;99.90;;;;;;8395618;28;19928;-70
2023/10/13 11:06:03;;;;;;;;;;;20.50;99.90;;;;;;8375781;28;19928;-70
2023/10/13 11:10:19;;;;;;;;;;;20.50;99.90;;;;;;8395497;28;19939;-70
2023/10/13 11:14:25;;;;;;;;;;;20.50;99.90;;;;;;8376255;28;19928;-70
2023/10/13 11:18:38;;;;;;;;;;;20.50;99.90;;;;;;8399327;28;19939;-70
2023/10/13 11:22:46;;;;;;;;;;;20.50;99.90;;;;;;8395296;28;19928;-70
2023/10/13 11:26:52;;;;;;;;;;;20.50;99.90;;;;;;8369208;28;19939;-70
2023/10/13 11:31:10;;;;;;;;;;;20.50;99.90;;;;;;8398716;28;19924;-71
2023/10/13 11:35:20;;;;;;;;;;;20.50;99.90;;;;;;8386218;28;20326;-71
2023/10/13 11:39:32;;;;;;;;;;;20.60;99.90;;;;;;8372628;28;19932;-70
2023/10/13 11:47:59;;;;;;;;;;;20.70;99.90;;;;;;8385623;28;20026;-71
2023/10/13 11:52:15;;;;;;;;;;;20.80;99.90;;;;;;8380969;28;19932;-70
2023/10/13 11:56:20;;;;;;;;;;;20.80;99.90;;;;;;8391855;28;19928;-71
2023/10/13 12:08:49;;;;;;;;;;;20.80;99.90;;;;;;8394655;28;20015;-70
2023/10/13 12:12:54;;;;;;;;;;;20.90;99.90;;;;;;8396317;28;20035;-70
2023/10/13 12:16:56;;;;;;;;;;;20.80;99.90;;;;;;8394598;28;19932;-71
2023/10/13 12:20:57;;;;;;;;;;;20.90;99.90;;;;;;8397031;28;19946;-70
2023/10/13 12:25:04;;;;;;;;;;;20.90;99.90;;;;;;8379092;28;19956;-70
2023/10/13 12:29:06;;;;;;;;;;;20.90;99.90;;;;;;8393871;28;19928;-71
2023/10/13 12:33:11;;;;;;;;;;;21.00;99.90;;;;;;8391627;28;19936;-71
2023/10/13 12:50:34;;;;;;;;;;;21.10;99.90;;;;;;8402135;28;19925;-70
2023/10/13 12:54:36;;;;;;;;;;;21.10;99.90;;;;;;8399276;28;19924;-70
2023/10/13 12:58:37;;;;;;;;;;;21.20;99.90;;;;;;8398765;28;20407;-70
2023/10/13 13:02:39;;;;;;;;;;;21.20;99.90;;;;;;8396527;28;19924;-70
2023/10/13 13:06:41;;;;;;;;;;;21.20;99.90;;;;;;8381567;28;19924;-70
2023/10/13 13:10:46;;;;;;;;;;;21.20;99.90;;;;;;8401219;28;19924;-70
2023/10/13 13:14:47;;;;;;;;;;;21.10;99.90;;;;;;8396624;28;20331;-71
2023/10/13 13:18:54;;;;;;;;;;;21.00;99.90;;;;;;8399433;28;19932;-70
2023/10/13 13:23:02;;;;;;;;;;;20.80;99.90;;;;;;8384599;28;19924;-71
2023/10/13 13:27:05;;;;;;;;;;;20.60;99.90;;;;;;8405540;28;20206;-70
2023/10/13 13:31:08;;;;;;;;;;;20.60;99.90;;;;;;8389004;28;20406;-70
2023/10/13 13:35:13;;;;;;;;;;;20.40;99.90;;;;;;8399703;28;19994;-70
2023/10/13 13:39:18;;;;;;;;;;;20.40;99.90;;;;;;8398362;28;20015;-70
2023/10/13 13:43:38;;;;;;;;;;;20.40;99.90;;;;;;8397204;28;19924;-70
2023/10/13 13:47:40;;;;;;;;;;;20.30;99.90;;;;;;8395924;28;19928;-71
2023/10/13 13:51:42;;;;;;;;;;;20.30;99.90;;;;;;8398133;28;19924;-70
2023/10/13 13:55:44;;;;;;;;;;;20.20;99.90;;;;;;8397084;28;19935;-71
2023/10/13 13:59:45;;;;;;;;;;;20.20;99.90;;;;;;8379595;28;20276;-70
2023/10/13 14:03:50;;;;;;;;;;;20.20;99.90;;;;;;8380117;28;19970;-70
2023/10/13 14:07:55;;;;;;;;;;;20.10;99.90;;;;;;8398641;28;19928;-70
2023/10/13 14:12:25;;;;;;;;;;;20.10;99.90;;;;;;8395618;28;19928;-70
2023/10/13 14:16:18;;;;;;;;;;;20.00;99.90;;;;;;8400088;28;19974;-70
2023/10/13 14:20:20;;;;;;;;;;;19.90;99.90;;;;;;8396611;28;19947;-70
2023/10/13 14:24:28;;;;;;;;;;;19.70;99.90;;;;;;8404537;28;19950;-70
2023/10/13 14:28:34;;;;;;;;;;;19.60;99.90;;;;;;8381497;28;19924;-70
2023/10/13 14:32:40;;;;;;;;;;;19.40;99.90;;;;;;8403749;28;19928;-71
2023/10/13 14:36:48;;;;;;;;;;;19.30;99.90;;;;;;8407660;28;20359;-70
2023/10/13 14:40:56;;;;;;;;;;;19.20;99.90;;;;;;8401227;28;19931;-70
2023/10/13 14:44:57;;;;;;;;;;;19.20;99.90;;;;;;8385349;28;19925;-71
2023/10/13 14:49:02;;;;;;;;;;;19.10;99.90;;;;;;8405978;28;20364;-70
2023/10/13 14:53:03;;;;;;;;;;;19.10;99.90;;;;;;8409774;28;19977;-70
2023/10/13 14:57:05;;;;;;;;;;;19.10;99.90;;;;;;8396854;28;19924;-70
2023/10/13 15:01:10;;;;;;;;;;;19.10;99.90;;;;;;8396285;28;19924;-71
2023/10/13 15:05:16;;;;;;;;;;;19.00;99.90;;;;;;8408250;28;20016;-70
2023/10/13 15:09:23;;;;;;;;;;;19.00;99.90;;;;;;8408237;28;19924;-70
2023/10/13 15:13:25;;;;;;;;;;;19.00;99.90;;;;;;8402576;28;19939;-71
2023/10/13 15:17:29;;;;;;;;;;;18.90;99.90;;;;;;8409115;28;19928;-70
2023/10/13 15:21:36;;;;;;;;;;;18.90;99.90;;;;;;8404057;28;20204;-71
2023/10/13 15:25:49;;;;;;;;;;;18.90;99.90;;;;;;8404260;28;19924;-71
2023/10/13 15:29:50;;;;;;;;;;;18.90;99.90;;;;;;8405087;28;19978;-71
2023/10/13 15:33:54;;;;;;;;;;;18.90;99.90;;;;;;8400919;28;20652;-71
2023/10/13 15:37:56;;;;;;;;;;;18.80;99.90;;;;;;8404886;28;19967;-71
2023/10/13 15:42:02;;;;;;;;;;;18.80;99.90;;;;;;8397302;28;19932;-71
2023/10/13 15:46:11;;;;;;;;;;;18.80;99.90;;;;;;8380675;28;19986;-71
2023/10/13 15:50:41;;;;;;;;;;;18.70;99.90;;;;;;8404240;28;19942;-71
2023/10/13 15:54:43;;;;;;;;;;;18.70;99.90;;;;;;8395610;28;19963;-71
2023/10/13 15:58:45;;;;;;;;;;;18.70;99.90;;;;;;8384026;28;20359;-71
2023/10/13 16:02:49;;;;;;;;;;;18.70;99.90;;;;;;8403447;28;19939;-71
2023/10/13 16:06:51;;;;;;;;;;;18.70;99.90;;;;;;8401637;28;19928;-71
2023/10/13 16:11:02;;;;;;;;;;;18.70;99.90;;;;;;8394762;28;19932;-71
2023/10/13 16:15:08;;;;;;;;;;;18.80;99.90;;;;;;8401858;28;19970;-71
2023/10/13 16:19:09;;;;;;;;;;;18.80;99.90;;;;;;8395490;28;19936;-71
2023/10/13 16:23:11;;;;;;;;;;;18.80;99.90;;;;;;8396473;28;20382;-71
2023/10/13 16:27:14;;;;;;;;;;;18.80;99.90;;;;;;8402984;28;19931;-71
2023/10/13 16:31:15;;;;;;;;;;;18.90;99.90;;;;;;8400261;28;19970;-71
2023/10/13 16:35:18;;;;;;;;;;;18.90;99.90;;;;;;8394810;28;19929;-70
2023/10/13 16:39:22;;;;;;;;;;;18.90;99.90;;;;;;8398008;28;19947;-71
2023/10/13 16:43:24;;;;;;;;;;;19.00;99.90;;;;;;8396253;28;19924;-71
2023/10/13 16:47:26;;;;;;;;;;;19.00;99.90;;;;;;8402807;28;19924;-71
2023/10/13 16:51:29;;;;;;;;;;;19.00;99.90;;;;;;8401201;28;20451;-71
2023/10/13 16:55:30;;;;;;;;;;;19.00;99.90;;;;;;8401874;28;19924;-71
2023/10/13 16:59:32;;;;;;;;;;;19.00;99.90;;;;;;8381648;28;20257;-71
2023/10/13 17:03:36;;;;;;;;;;;19.10;99.90;;;;;;8399982;28;20273;-71
2023/10/13 17:07:38;;;;;;;;;;;19.10;99.90;;;;;;8397406;28;20363;-71
2023/10/13 17:11:40;;;;;;;;;;;19.20;99.90;;;;;;8404184;28;20406;-71
2023/10/13 17:15:42;;;;;;;;;;;19.10;99.90;;;;;;8403983;28;20409;-71
2023/10/13 17:19:49;;;;;;;;;;;19.20;99.90;;;;;;8395604;28;19928;-71
2023/10/13 17:23:52;;;;;;;;;;;19.10;99.90;;;;;;8396346;28;20021;-71
2023/10/13 17:27:53;;;;;;;;;;;19.10;99.90;;;;;;8378600;28;20462;-71
2023/10/13 17:31:55;;;;;;;;;;;19.00;99.90;;;;;;8380503;28;19991;-71
2023/10/13 17:35:56;;;;;;;;;;;19.00;99.90;;;;;;8412891;28;19925;-71
2023/10/13 17:40:01;;;;;;;;;;;18.80;99.90;;;;;;8397803;28;19982;-71
2023/10/13 17:44:03;;;;;;;;;;;18.60;99.90;;;;;;8396330;28;20552;-71
2023/10/13 17:48:08;;;;;;;;;;;18.50;99.90;;;;;;8382837;28;19929;-70
2023/10/13 17:52:10;;;;;;;;;;;18.40;99.90;;;;;;8399467;28;19951;-71
2023/10/13 17:56:12;;;;;;;;;;;18.30;99.90;;;;;;8401078;28;20299;-70
2023/10/13 18:00:14;;;;;;;;;;;18.20;99.90;;;;;;8397995;28;19936;-71
2023/10/13 18:04:18;;;;;;;;;;;18.10;99.90;;;;;;8396875;28;19928;-71
2023/10/13 18:08:19;;;;;;;;;;;18.10;99.90;;;;;;8400204;28;19924;-70
2023/10/13 18:12:22;;;;;;;;;;;18.10;99.90;;;;;;8410725;28;19951;-71
2023/10/13 18:16:24;;;;;;;;;;;18.00;99.90;;;;;;8405570;28;20022;-71
2023/10/13 18:20:28;;;;;;;;;;;18.00;99.90;;;;;;8404446;28;19924;-71
2023/10/13 18:24:30;;;;;;;;;;;18.00;99.90;;;;;;8381059;28;20272;-70
2023/10/13 18:28:35;;;;;;;;;;;17.90;99.90;;;;;;8398471;28;19928;-70
2023/10/13 18:32:41;;;;;;;;;;;17.90;99.90;;;;;;8398839;28;19987;-71
2023/10/13 18:36:46;;;;;;;;;;;17.90;99.90;;;;;;8395621;28;20376;-70
2023/10/13 18:40:55;;;;;;;;;;;17.90;99.90;;;;;;8393525;28;20398;-70
2023/10/13 18:44:56;;;;;;;;;;;18.00;99.90;;;;;;8390753;28;20360;-71
2023/10/13 18:48:58;;;;;;;;;;;18.00;99.90;;;;;;8391858;28;19925;-70
2023/10/13 18:53:00;;;;;;;;;;;18.00;99.90;;;;;;8392297;28;19928;-71
2023/10/13 18:57:03;;;;;;;;;;;18.10;99.90;;;;;;8375478;28;19935;-70
2023/10/13 19:01:17;;;;;;;;;;;18.10;99.90;;;;;;8376078;28;20034;-70
2023/10/13 19:05:20;;;;;;;;;;;18.10;99.90;;;;;;8390511;28;19950;-70
2023/10/13 19:09:28;;;;;;;;;;;18.10;99.90;;;;;;8397964;28;19935;-70
2023/10/13 19:13:29;;;;;;;;;;;18.10;99.90;;;;;;8374536;28;19932;-71
2023/10/13 19:17:31;;;;;;;;;;;18.10;99.90;;;;;;8391080;28;19924;-70
2023/10/13 19:21:39;;;;;;;;;;;18.10;99.90;;;;;;8389466;28;19959;-71
2023/10/13 19:30:45;;;;;;;;;;;18.10;99.90;;;;;;8392871;28;19919;-70
2023/10/13 19:34:46;;;;;;;;;;;18.20;99.90;;;;;;8389571;28;19925;-70
2023/10/13 19:38:50;;;;;;;;;;;18.20;99.90;;;;;;8387978;28;20379;-70
2023/10/13 19:42:52;;;;;;;;;;;18.30;99.90;;;;;;8391141;28;19979;-70
2023/10/13 19:46:54;;;;;;;;;;;18.30;99.90;;;;;;8388924;28;20287;-70
2023/10/13 19:50:55;;;;;;;;;;;18.30;99.90;;;;;;8389931;28;20515;-70
2023/10/13 19:54:59;;;;;;;;;;;18.30;99.90;;;;;;8360597;28;19936;-70
2023/10/13 19:59:00;;;;;;;;;;;18.40;99.90;;;;;;8358281;28;20344;-70
2023/10/13 20:03:03;;;;;;;;;;;18.40;99.90;;;;;;8358105;28;19936;-70
2023/10/13 20:07:05;;;;;;;;;;;18.40;99.90;;;;;;8358397;28;19939;-70
2023/10/13 20:11:12;;;;;;;;;;;18.50;99.90;;;;;;8354924;28;19952;-70
2023/10/13 20:15:15;;;;;;;;;;;18.50;99.90;;;;;;8356878;28;20319;-70
2023/10/13 20:19:16;;;;;;;;;;;18.50;99.90;;;;;;8362646;28;20033;-71
2023/10/13 20:23:19;;;;;;;;;;;18.50;99.90;;;;;;8370508;28;19936;-72
2023/10/13 20:27:22;;;;;;;;;;;18.00;99.90;;;;;;8357050;28;20372;-72
2023/10/13 20:31:24;;;;;;;;;;;17.00;99.90;;;;;;8361574;28;19929;-73
2023/10/13 20:35:27;;;;;;;;;;;16.40;99.90;;;;;;8357780;28;19932;-72
2023/10/13 20:39:31;;;;;;;;;;;16.00;99.90;;;;;;8359983;28;20313;-73
2023/10/13 20:43:33;;;;;;;;;;;15.70;99.90;;;;;;8355522;28;19928;-73
2023/10/13 20:47:35;;;;;;;;;;;15.60;99.90;;;;;;8361409;28;19936;-73
2023/10/13 20:51:41;;;;;;;;;;;15.50;99.90;;;;;;8362301;28;19978;-72
2023/10/13 20:55:43;;;;;;;;;;;15.50;99.90;;;;;;8360431;28;20366;-74
2023/10/13 20:59:45;;;;;;;;;;;15.50;99.90;;;;;;8364713;28;19932;-72
2023/10/13 21:03:48;;;;;;;;;;;15.60;99.90;;;;;;8377717;28;20336;-74
2023/10/13 21:07:51;;;;;;;;;;;15.80;99.90;;;;;;8388506;28;20357;-73
2023/10/13 21:11:52;;;;;;;;;;;15.90;99.90;;;;;;8386321;28;19924;-73
2023/10/13 21:15:54;;;;;;;;;;;16.00;99.90;;;;;;8391842;28;20407;-73
2023/10/13 21:19:56;;;;;;;;;;;16.10;99.90;;;;;;8392256;28;19971;-73
2023/10/13 21:23:59;;;;;;;;;;;16.30;99.90;;;;;;8391348;28;19932;-72
2023/10/13 21:28:01;;;;;;;;;;;16.30;99.90;;;;;;8391647;28;20367;-71
2023/10/13 21:32:03;;;;;;;;;;;16.40;99.90;;;;;;8391183;28;19935;-72
2023/10/13 21:36:05;;;;;;;;;;;16.40;99.90;;;;;;8391074;28;19929;-71
2023/10/13 21:40:07;;;;;;;;;;;16.40;99.90;;;;;;8391782;28;19929;-71
2023/10/13 21:44:09;;;;;;;;;;;16.50;99.90;;;;;;8389600;28;19924;-72
2023/10/13 21:48:12;;;;;;;;;;;16.50;99.90;;;;;;8390232;28;20096;-71
2023/10/13 21:52:16;;;;;;;;;;;16.50;99.90;;;;;;8392529;28;19928;-73
2023/10/13 21:56:18;;;;;;;;;;;16.50;99.90;;;;;;8424427;28;20363;-74
2023/10/13 22:00:53;;;;;;;;;;;16.50;99.90;;;;;;8406023;28;20395;-72
2023/10/13 22:04:42;;;;;;;;;;;16.60;99.90;;;;;;8423561;28;19924;-73
2023/10/13 22:08:45;;;;;;;;;;;16.60;99.90;;;;;;8397299;28;19928;-72
2023/10/13 22:12:47;;;;;;;;;;;16.60;99.90;;;;;;8397925;28;19924;-73
2023/10/13 22:21:52;;;;;;;;;;;15.90;99.90;;;;;;8424222;28;19991;-73
2023/10/13 22:25:54;;;;;;;;;;;15.60;99.90;;;;;;8425477;28;20197;-72
2023/10/13 22:29:57;;;;;;;;;;;15.50;99.90;;;;;;8406051;28;19981;-73
2023/10/13 22:33:59;;;;;;;;;;;15.40;99.90;;;;;;8406083;28;19924;-73
2023/10/13 22:53:11;;;;;;;;;;;15.20;99.90;;;;;;8428821;28;19919;-73
2023/10/13 22:57:13;;;;;;;;;;;15.10;99.90;;;;;;8431777;28;19924;-73
2023/10/13 23:01:18;;;;;;;;;;;15.10;99.90;;;;;;8428772;28;20231;-72
2023/10/13 23:05:29;;;;;;;;;;;15.10;99.90;;;;;;8430602;28;20406;-72
2023/10/13 23:09:31;;;;;;;;;;;15.10;99.90;;;;;;8406872;28;19930;-72
2023/10/13 23:13:32;;;;;;;;;;;15.10;99.90;;;;;;8408511;28;19931;-73
2023/10/13 23:17:34;;;;;;;;;;;15.10;99.90;;;;;;8430546;28;19954;-72
2023/10/13 23:21:38;;;;;;;;;;;15.10;99.90;;;;;;8428920;28;19931;-72
2023/10/13 23:25:40;;;;;;;;;;;15.10;99.90;;;;;;8412091;28;20226;-72
2023/10/13 23:29:42;;;;;;;;;;;15.00;99.90;;;;;;8411060;28;20367;-73
2023/10/13 23:33:44;;;;;;;;;;;15.00;99.90;;;;;;8411091;28;19981;-73
2023/10/13 23:37:45;;;;;;;;;;;15.00;99.90;;;;;;8429914;28;19924;-73
2023/10/13 23:41:47;;;;;;;;;;;15.00;99.90;;;;;;8428575;28;19931;-72
2023/10/13 23:45:52;;;;;;;;;;;15.00;99.90;;;;;;8429114;28;19931;-72
2023/10/13 23:49:54;;;;;;;;;;;15.00;99.90;;;;;;8428841;28;19980;-72
2023/10/13 23:54:16;;;;;;;;;;;15.00;99.90;;;;;;8427883;28;20045;-72
2023/10/13 23:58:18;;;;;;;;;;;15.00;99.90;;;;;;8428047;28;19947;-72
